Snow/Ice From: 23-10-2018 22:46 Until: 24-10-2018 08:00 warning for: Snow/Ice Level: Yellow info button
suomi:
Liikennesää: Ajokeli on huono tienpintojen jäätymisen vuoksi.

svenska:
Trafikvädret: Väglaget är dåligt p.g.a. tillfrysning av vägytor.

english:
Traffic weather warning: Bad road conditions are expected because of ice-covered roads. 


Thunder radar more information blitzortung!


Löydät sääaseman tiedot myös:

European Weather Network

Finland Weather Exchange

Weather Underground

AWEKAS



Weather Underground säähistoriasivu

Päivittäin yhteenveto Maaliskuu 15, 2017 Yksiköt:  Englantilaiset    Metriset   Molemmat
« Edellinen Päivä
Seuraava Päivä »
Päivittäin Viikoittain Kuukausittain Vuosittain Mukautettu
  Korkea: Matala: Keskiarvo:
Lämpötila: TemperatureF °F 33.3 °F 37.1 °F
Kastepiste: DewpointF °F 29.7 °F 32.9 °F
Kosteus: Humidity % 68 % 84 %
Tuulen nopeus: WindSpeedMPH mph 0.0 mph 4.1 mph
Tuulenpuuska: WindSpeedGustMPH mph - -
Tuuli:- - SW
Ilmanpaine: PressureIn in 29.21 in -
Sade: 0.00 in    
Historical Graphs
 
 
Taulukkotiedot Maaliskuu 15, 2017
Aika Lämpötila Kastepiste Ilmanpaine Tuuli Tuulen nopeus Tuulenpuuska Kosteus Sademäärä (tunneittain)
TemperatureF °F DewpointF °F PressureIn in Calm     Humidity % HourlyPrecipIn in
00:00 35.2 °F 34.5 °F 29.28 in SSW 2.0 mph 6.0 mph 97 % 0.00 in
00:15 35.4 °F 34.7 °F 29.28 in SSW 2.0 mph 7.0 mph 97 % 0.00 in
00:45 35.4 °F 34.7 °F 29.28 in SW 1.0 mph 7.0 mph 97 % 0.00 in
01:00 35.4 °F 34.7 °F 29.27 in SW 1.0 mph 5.0 mph 97 % 0.00 in
01:15 35.4 °F 34.7 °F 29.28 in Calm   3.0 mph 97 % 0.00 in
01:30 35.4 °F 34.7 °F 29.27 in SSW 1.0 mph 3.0 mph 97 % 0.00 in
01:45 35.4 °F 34.7 °F 29.28 in SSW 2.0 mph 4.0 mph 97 % 0.00 in
02:00 35.4 °F 34.7 °F 29.26 in SW 1.0 mph 6.0 mph 97 % 0.00 in
02:15 35.2 °F 34.5 °F 29.26 in SSW 2.0 mph 8.0 mph 97 % 0.00 in
02:30 35.1 °F 34.3 °F 29.26 in SSW 2.0 mph 5.0 mph 97 % 0.00 in
02:45 35.1 °F 34.2 °F 29.25 in SSW 2.0 mph 7.0 mph 97 % 0.00 in
03:00 34.9 °F 34.2 °F 29.25 in SSW 3.0 mph 8.0 mph 97 % 0.00 in
03:15 34.7 °F 34.0 °F 29.25 in SW 2.0 mph 6.0 mph 97 % 0.00 in
03:30 34.3 °F 33.6 °F 29.24 in SSW 3.0 mph 8.0 mph 97 % 0.00 in
03:45 34.3 °F 33.6 °F 29.25 in SSW 4.0 mph 7.0 mph 97 % 0.00 in
04:00 34.2 °F 33.4 °F 29.25 in SSW 4.0 mph 10.0 mph 97 % 0.00 in
04:15 34.2 °F 33.3 °F 29.25 in SSW 4.0 mph 9.0 mph 97 % 0.00 in
04:30 34.0 °F 33.1 °F 29.24 in SSW 3.0 mph 8.0 mph 97 % 0.00 in
04:45 33.6 °F 32.9 °F 29.24 in SSW 3.0 mph 9.0 mph 97 % 0.00 in
05:00 33.8 °F 33.1 °F 29.24 in SSW 5.0 mph 13.0 mph 97 % 0.00 in
05:30 34.0 °F 33.1 °F 29.24 in SSW 4.0 mph 10.0 mph 97 % 0.00 in
05:45 34.2 °F 33.3 °F 29.23 in SSW 5.0 mph 13.0 mph 97 % 0.00 in
06:00 34.0 °F 32.9 °F 29.23 in SSW 4.0 mph 9.0 mph 96 % 0.00 in
06:15 33.8 °F 32.7 °F 29.23 in SSW 5.0 mph 8.0 mph 96 % 0.00 in
06:30 33.4 °F 32.5 °F 29.22 in SSW 4.0 mph 10.0 mph 96 % 0.00 in
06:45 33.3 °F 32.4 °F 29.22 in SSW 3.0 mph 6.0 mph 96 % 0.00 in
07:00 33.3 °F 32.4 °F 29.22 in SSW 3.0 mph 7.0 mph 96 % 0.00 in
07:15 33.4 °F 32.2 °F 29.22 in SSW 4.0 mph 12.0 mph 95 % 0.00 in
07:30 33.6 °F 32.4 °F 29.22 in SSW 4.0 mph 12.0 mph 95 % 0.00 in
07:45 34.2 °F 32.9 °F 29.22 in SSW 6.0 mph 14.0 mph 95 % 0.00 in
08:00 34.3 °F 32.9 °F 29.23 in SSW 4.0 mph 11.0 mph 94 % 0.00 in
08:15 34.3 °F 33.1 °F 29.22 in SSW 3.0 mph 9.0 mph 95 % 0.00 in
08:30 34.9 °F 33.8 °F 29.22 in SSW 5.0 mph 14.0 mph 96 % 0.00 in
08:45 35.2 °F 34.0 °F 29.21 in SSW 5.0 mph 12.0 mph 95 % 0.00 in
09:00 35.8 °F 34.3 °F 29.22 in SSW 4.0 mph 11.0 mph 95 % 0.00 in
09:15 36.3 °F 34.3 °F 29.21 in SSW 5.0 mph 15.0 mph 92 % 0.00 in
09:30 36.9 °F 34.5 °F 29.21 in SSW 6.0 mph 14.0 mph 91 % 0.00 in
09:45 37.6 °F 34.3 °F 29.21 in SSW 6.0 mph 14.0 mph 88 % 0.00 in
10:00 37.8 °F 34.3 °F 29.22 in SSW 6.0 mph 14.0 mph 87 % 0.00 in
10:15 38.1 °F 34.3 °F 29.22 in SSW 5.0 mph 13.0 mph 86 % 0.00 in
10:30 38.3 °F 33.8 °F 29.21 in SSW 6.0 mph 14.0 mph 84 % 0.00 in
10:45 38.7 °F 34.3 °F 29.22 in SSW 6.0 mph 15.0 mph 84 % 0.00 in
11:00 37.8 °F 34.2 °F 29.23 in SW 6.0 mph 14.0 mph 87 % 0.00 in
11:15 36.3 °F 34.0 °F 29.23 in SSW 5.0 mph 17.0 mph 91 % 0.00 in
11:30 35.2 °F 33.4 °F 29.24 in SSW 6.0 mph 16.0 mph 93 % 0.00 in
11:45 34.9 °F 33.3 °F 29.24 in SW 5.0 mph 12.0 mph 94 % 0.00 in
12:00 35.4 °F 34.0 °F 29.24 in SSW 6.0 mph 11.0 mph 94 % 0.00 in
12:15 36.7 °F 34.5 °F 29.24 in SSW 6.0 mph 13.0 mph 92 % 0.00 in
12:30 37.8 °F 34.7 °F 29.25 in SSW 5.0 mph 14.0 mph 89 % 0.00 in
12:45 39.0 °F 35.1 °F 29.25 in SSW 6.0 mph 13.0 mph 85 % 0.00 in
13:00 40.1 °F 35.1 °F 29.25 in SSW 6.0 mph 17.0 mph 82 % 0.00 in
13:15 40.3 °F 34.5 °F 29.26 in SSW 5.0 mph 14.0 mph 80 % 0.00 in
13:30 40.1 °F 34.2 °F 29.26 in SSW 5.0 mph 16.0 mph 79 % 0.00 in
13:45 40.5 °F 34.2 °F 29.26 in SSW 5.0 mph 13.0 mph 78 % 0.00 in
14:00 40.6 °F 33.6 °F 29.27 in SSW 6.0 mph 15.0 mph 76 % 0.00 in
14:15 40.8 °F 34.0 °F 29.27 in SW 5.0 mph 15.0 mph 76 % 0.00 in
14:30 42.6 °F 34.5 °F 29.26 in SW 5.0 mph 13.0 mph 73 % 0.00 in
14:45 42.6 °F 34.5 °F 29.27 in SW 5.0 mph 17.0 mph 73 % 0.00 in
15:00 43.3 °F 34.7 °F 29.27 in SW 5.0 mph 16.0 mph 71 % 0.00 in
15:15 43.9 °F 34.7 °F 29.28 in SSW 5.0 mph 14.0 mph 70 % 0.00 in
15:30 43.3 °F 34.3 °F 29.28 in SW 5.0 mph 11.0 mph 70 % 0.00 in
15:45 43.5 °F 34.3 °F 29.28 in SW 4.0 mph 10.0 mph 70 % 0.00 in
16:00 44.1 °F 34.2 °F 29.28 in SW 6.0 mph 13.0 mph 68 % 0.00 in
16:15 43.5 °F 33.8 °F 29.28 in WSW 5.0 mph 19.0 mph 68 % 0.00 in
16:30 43.0 °F 33.4 °F 29.29 in WSW 5.0 mph 12.0 mph 69 % 0.00 in
16:45 42.4 °F 33.4 °F 29.30 in WSW 5.0 mph 15.0 mph 70 % 0.00 in
17:00 42.3 °F 33.4 °F 29.30 in WSW 4.0 mph 10.0 mph 71 % 0.00 in
17:15 42.1 °F 33.4 °F 29.30 in West 4.0 mph 13.0 mph 71 % 0.00 in
17:30 42.1 °F 33.4 °F 29.31 in WSW 5.0 mph 14.0 mph 71 % 0.00 in
17:45 41.7 °F 33.4 °F 29.31 in WSW 4.0 mph 19.0 mph 72 % 0.00 in
18:00 41.4 °F 32.9 °F 29.31 in WSW 4.0 mph 12.0 mph 72 % 0.00 in
18:30 40.5 °F 32.4 °F 29.32 in West 4.0 mph 12.0 mph 73 % 0.00 in
18:45 40.3 °F 32.5 °F 29.32 in West 6.0 mph 21.0 mph 74 % 0.00 in
19:00 39.9 °F 32.7 °F 29.33 in WNW 7.0 mph 16.0 mph 75 % 0.00 in
19:15 39.7 °F 32.5 °F 29.33 in WNW 6.0 mph 14.0 mph 75 % 0.00 in
19:30 39.6 °F 32.4 °F 29.34 in West 6.0 mph 13.0 mph 75 % 0.00 in
20:00 39.0 °F 32.2 °F 29.35 in WNW 5.0 mph 16.0 mph 76 % 0.00 in
20:15 38.8 °F 32.0 °F 29.35 in West 5.0 mph 13.0 mph 76 % 0.00 in
20:30 38.5 °F 31.8 °F 29.35 in WNW 3.0 mph 10.0 mph 77 % 0.00 in
20:45 38.1 °F 31.5 °F 29.36 in WSW 3.0 mph 10.0 mph 77 % 0.00 in
21:00 37.9 °F 31.1 °F 29.36 in WSW 4.0 mph 10.0 mph 76 % 0.00 in
21:15 37.9 °F 31.1 °F 29.36 in WSW 4.0 mph 12.0 mph 76 % 0.00 in
21:30 37.8 °F 30.6 °F 29.37 in West 3.0 mph 14.0 mph 75 % 0.00 in
21:45 37.8 °F 30.2 °F 29.37 in West 4.0 mph 15.0 mph 74 % 0.00 in
22:00 37.9 °F 30.0 °F 29.38 in WNW 4.0 mph 19.0 mph 73 % 0.00 in
22:15 37.8 °F 29.8 °F 29.39 in WNW 3.0 mph 9.0 mph 73 % 0.00 in
22:30 37.6 °F 30.0 °F 29.39 in WSW 3.0 mph 10.0 mph 74 % 0.00 in
22:45 37.4 °F 29.8 °F 29.40 in West 3.0 mph 9.0 mph 74 % 0.00 in
23:00 37.2 °F 29.8 °F 29.40 in West 2.0 mph 10.0 mph 74 % 0.00 in
23:15 37.0 °F 29.8 °F 29.41 in West 2.0 mph 7.0 mph 75 % 0.00 in
23:30 36.9 °F 29.7 °F 29.41 in West 2.0 mph 7.0 mph 75 % 0.00 in
23:45 37.0 °F 29.8 °F 29.41 in West 2.0 mph 9.0 mph 75 % 0.00 in
Esan sääasema
Terveisin Weather Underground - 2.75 mb

Alkuperäinen skripti  Jim McMurry - jmcmurry@mwt.net Sovitettu myös templatelle  Wim van der Kuil - Leuven-Template.eu

Laitteet joita käytämme:

Sääasema
Davis VP2

Sääasemaohjelma
Cumulus

Sääaseman tietokone
Asus EeePC

Palveluntarjoaja
Suncomet

Davis VP2

Cumulus

Asus EeePC

Suncomet